createdAt,value
2022-08-06T00:00:08.123Z,22.83
2022-08-06T00:02:42.017Z,22.72
2022-08-06T00:05:17.899Z,22.84
2022-08-06T00:07:53.313Z,22.71
2022-08-06T00:10:29.770Z,22.67
2022-08-06T00:13:04.447Z,22.74
2022-08-06T00:16:05.859Z,22.17
2022-08-06T00:18:24.084Z,21.81
2022-08-06T00:23:24.315Z,22.43
2022-08-06T00:25:54.731Z,21.70
2022-08-06T00:28:31.444Z,21.29
2022-08-06T00:31:05.587Z,20.62
2022-08-06T00:33:43.962Z,20.90
2022-08-06T00:36:24.963Z,21.11
2022-08-06T00:38:54.505Z,21.29
2022-08-06T00:41:27.101Z,21.52
2022-08-06T00:44:02.466Z,21.56
2022-08-06T00:46:34.436Z,21.75
2022-08-06T00:49:11.515Z,21.56
2022-08-06T00:51:50.312Z,21.48
2022-08-06T00:54:27.384Z,21.70
2022-08-06T00:56:57.578Z,21.74
2022-08-06T00:59:35.412Z,21.73
2022-08-06T01:02:10.029Z,21.86
2022-08-06T01:04:39.845Z,21.87
2022-08-06T01:07:08.818Z,21.95
2022-08-06T01:09:57.034Z,22.02
2022-08-06T01:12:33.820Z,22.06
2022-08-06T01:15:15.618Z,22.06
2022-08-06T01:17:59.754Z,22.03
2022-08-06T01:21:59.508Z,22.06
2022-08-06T01:23:49.516Z,22.19
2022-08-06T01:26:40.805Z,22.01
2022-08-06T01:29:17.626Z,22.02
2022-08-06T01:31:52.307Z,22.09
2022-08-06T01:34:31.733Z,22.05
2022-08-06T01:37:11.784Z,22.02
2022-08-06T01:39:53.291Z,22.26
2022-08-06T01:42:35.917Z,22.22
2022-08-06T01:45:11.877Z,22.22
2022-08-06T01:47:54.143Z,22.13
2022-08-06T01:50:30.193Z,22.05
2022-08-06T01:53:01.339Z,21.87
2022-08-06T01:55:56.692Z,21.83
2022-08-06T01:58:30.161Z,21.65
2022-08-06T02:01:04.412Z,21.47
2022-08-06T02:03:39.105Z,21.32
2022-08-06T02:06:23.354Z,21.39
2022-08-06T02:09:22.385Z,21.43
2022-08-06T02:12:03.879Z,21.57
2022-08-06T02:14:41.866Z,21.46
2022-08-06T02:17:17.988Z,21.51
2022-08-06T02:20:18.638Z,21.71
2022-08-06T02:22:52.409Z,21.71
2022-08-06T02:25:30.777Z,21.72
2022-08-06T02:28:03.020Z,21.61
2022-08-06T02:30:37.065Z,21.57
2022-08-06T02:33:18.255Z,21.72
2022-08-06T02:35:50.992Z,21.91
2022-08-06T02:38:29.303Z,21.73
2022-08-06T02:41:03.652Z,21.74
2022-08-06T02:43:39.537Z,21.37
2022-08-06T02:46:14.940Z,21.34
2022-08-06T02:48:51.697Z,21.22
2022-08-06T02:51:44.018Z,21.26
2022-08-06T02:54:19.937Z,21.31
2022-08-06T02:56:52.419Z,21.21
2022-08-06T02:59:38.841Z,21.46
2022-08-06T03:02:14.819Z,21.24
2022-08-06T03:04:56.590Z,21.27
2022-08-06T03:07:29.220Z,21.23
2022-08-06T03:10:02.265Z,21.31
2022-08-06T03:12:33.263Z,21.14
2022-08-06T03:15:12.400Z,21.32
2022-08-06T03:17:47.706Z,21.26
2022-08-06T03:20:25.392Z,21.28
2022-08-06T03:22:57.414Z,21.21
2022-08-06T03:25:31.115Z,21.10
2022-08-06T03:28:02.516Z,21.06
2022-08-06T03:30:34.079Z,21.27
2022-08-06T03:33:07.856Z,21.15
2022-08-06T03:36:00.707Z,20.96
2022-08-06T03:38:33.944Z,21.20
2022-08-06T03:41:09.064Z,21.17
2022-08-06T03:43:55.923Z,21.03
2022-08-06T03:46:32.587Z,21.04
2022-08-06T03:49:07.250Z,21.08
2022-08-06T03:51:51.988Z,20.98
2022-08-06T03:54:30.429Z,21.24
2022-08-06T03:57:08.302Z,21.31
2022-08-06T03:59:57.564Z,20.95
2022-08-06T04:02:37.088Z,21.17
2022-08-06T04:05:22.912Z,21.35
2022-08-06T04:07:57.193Z,21.30
2022-08-06T04:10:33.790Z,21.56
2022-08-06T04:14:03.722Z,21.70
2022-08-06T04:16:02.032Z,21.39
2022-08-06T04:18:42.370Z,21.63
2022-08-06T04:21:20.745Z,21.89
2022-08-06T04:23:53.649Z,22.09
2022-08-06T04:26:28.736Z,22.06
2022-08-06T04:28:59.014Z,21.92
2022-08-06T04:32:11.170Z,21.39
2022-08-06T04:34:27.364Z,21.67
2022-08-06T04:37:01.369Z,21.75
2022-08-06T04:39:37.737Z,21.87
2022-08-06T04:42:19.619Z,21.70
2022-08-06T04:44:56.029Z,21.89
2022-08-06T04:47:41.373Z,21.68
2022-08-06T04:50:12.064Z,21.94
2022-08-06T04:52:48.135Z,22.26
2022-08-06T04:55:23.737Z,22.43
2022-08-06T04:57:56.371Z,22.45
2022-08-06T05:00:32.095Z,22.66
2022-08-06T05:03:20.959Z,22.94
2022-08-06T05:06:16.054Z,22.83
2022-08-06T05:08:52.205Z,23.28
2022-08-06T05:11:26.642Z,23.48
2022-08-06T05:13:59.772Z,23.68
2022-08-06T05:16:31.752Z,23.78
2022-08-06T05:19:20.184Z,23.98
2022-08-06T05:22:10.685Z,24.16
2022-08-06T05:25:00.553Z,24.33
2022-08-06T05:27:54.256Z,24.34
2022-08-06T05:30:22.924Z,24.52
2022-08-06T05:32:57.341Z,24.90
2022-08-06T05:35:40.376Z,25.13
2022-08-06T05:38:11.777Z,25.03
2022-08-06T05:40:53.605Z,25.03
2022-08-06T05:43:59.058Z,24.80
2022-08-06T05:46:21.467Z,24.83
2022-08-06T05:49:02.428Z,24.75
2022-08-06T05:51:48.819Z,24.57
2022-08-06T05:54:24.297Z,24.61
2022-08-06T05:56:56.103Z,24.64
2022-08-06T05:59:38.008Z,24.60
2022-08-06T06:02:22.833Z,24.64
2022-08-06T06:06:02.021Z,24.74
2022-08-06T06:08:08.261Z,25.05
2022-08-06T06:10:34.813Z,25.59
2022-08-06T06:13:04.848Z,25.92
2022-08-06T06:16:04.645Z,26.46
2022-08-06T06:18:47.229Z,25.82
2022-08-06T06:21:32.922Z,26.17
2022-08-06T06:24:16.644Z,26.55
2022-08-06T06:26:54.708Z,27.22
2022-08-06T06:30:05.595Z,27.61
2022-08-06T06:32:41.231Z,27.47
2022-08-06T06:35:32.534Z,27.48
2022-08-06T06:38:20.413Z,26.65
2022-08-06T06:41:06.630Z,26.81
2022-08-06T06:43:55.515Z,27.23
2022-08-06T06:46:37.615Z,27.26
2022-08-06T06:49:59.602Z,27.80
2022-08-06T06:52:10.841Z,28.38
2022-08-06T06:54:45.597Z,28.37
2022-08-06T06:57:23.518Z,28.80
2022-08-06T07:00:01.412Z,29.39
2022-08-06T07:02:49.437Z,29.75
2022-08-06T07:06:05.535Z,30.18
2022-08-06T07:08:16.261Z,29.86
2022-08-06T07:11:00.857Z,30.07
2022-08-06T07:13:47.882Z,30.01
2022-08-06T07:16:35.652Z,30.41
2022-08-06T07:19:10.466Z,30.36
2022-08-06T07:21:47.783Z,28.95
2022-08-06T07:24:38.193Z,29.89
2022-08-06T07:27:15.289Z,29.94
2022-08-06T07:29:49.123Z,30.19
2022-08-06T07:32:32.514Z,30.83
2022-08-06T07:35:11.915Z,30.73
2022-08-06T07:37:49.088Z,30.74
2022-08-06T07:40:24.487Z,31.03
2022-08-06T07:43:03.352Z,31.28
2022-08-06T07:45:50.881Z,31.70
2022-08-06T07:48:28.723Z,33.01
2022-08-06T07:51:05.256Z,32.73
2022-08-06T07:53:53.299Z,32.51
2022-08-06T07:56:29.537Z,32.07
2022-08-06T07:59:01.415Z,31.70
2022-08-06T08:01:37.077Z,32.29
2022-08-06T08:04:35.153Z,33.75
2022-08-06T08:07:14.703Z,33.48
2022-08-06T08:10:02.633Z,33.68
2022-08-06T08:12:36.305Z,33.75
2022-08-06T08:15:18.404Z,33.62
2022-08-06T08:17:57.273Z,33.69
2022-08-06T08:20:34.433Z,34.53
2022-08-06T08:23:08.390Z,35.79
2022-08-06T08:25:40.435Z,36.16
2022-08-06T08:28:14.960Z,36.13
2022-08-06T08:30:49.377Z,36.19
2022-08-06T08:33:19.181Z,35.50
2022-08-06T08:35:50.381Z,36.27
2022-08-06T08:38:30.047Z,37.35
2022-08-06T08:41:03.573Z,36.50
2022-08-06T08:43:58.789Z,34.76
2022-08-06T08:46:30.913Z,35.23
2022-08-06T08:49:04.870Z,36.20
2022-08-06T08:51:36.638Z,33.49
2022-08-06T08:54:16.612Z,33.59
2022-08-06T08:57:11.132Z,35.48
2022-08-06T08:59:57.702Z,36.99
2022-08-06T09:02:28.370Z,36.90
2022-08-06T09:04:58.376Z,37.14
2022-08-06T09:07:36.943Z,37.64
2022-08-06T09:10:09.303Z,37.24
2022-08-06T09:12:46.015Z,36.69
2022-08-06T09:15:19.062Z,35.90
2022-08-06T09:18:12.006Z,35.41
2022-08-06T09:20:41.278Z,35.82
2022-08-06T09:23:17.275Z,36.54
2022-08-06T09:25:52.149Z,36.02
2022-08-06T09:28:35.842Z,35.50
2022-08-06T09:31:10.310Z,34.76
2022-08-06T09:34:19.199Z,34.62
2022-08-06T09:36:52.369Z,34.25
2022-08-06T09:39:59.980Z,34.52
2022-08-06T09:42:39.183Z,34.59
2022-08-06T09:45:16.154Z,34.79
2022-08-06T09:47:57.946Z,35.00
2022-08-06T09:50:39.194Z,34.72
2022-08-06T09:53:14.328Z,34.92
2022-08-06T09:55:44.666Z,35.16
2022-08-06T09:58:14.229Z,36.51
2022-08-06T10:00:46.253Z,36.22
2022-08-06T10:04:03.395Z,36.64
2022-08-06T10:06:14.640Z,36.97
2022-08-06T10:08:49.564Z,36.38
2022-08-06T10:11:41.192Z,37.11
2022-08-06T10:14:24.019Z,37.36
2022-08-06T10:17:14.158Z,38.30
2022-08-06T10:19:52.333Z,37.98
2022-08-06T10:22:27.088Z,38.61
2022-08-06T10:24:58.145Z,38.39
2022-08-06T10:27:36.427Z,37.74
2022-08-06T10:30:09.990Z,38.14
2022-08-06T10:32:46.023Z,36.90
2022-08-06T10:35:20.776Z,37.94
2022-08-06T10:37:58.781Z,38.40
2022-08-06T10:40:35.973Z,38.39
2022-08-06T10:43:12.550Z,38.37
2022-08-06T10:45:49.919Z,39.25
2022-08-06T10:48:56.800Z,39.68
2022-08-06T10:51:12.777Z,38.89
2022-08-06T10:54:02.480Z,39.39
2022-08-06T10:56:38.950Z,38.78
2022-08-06T10:59:15.264Z,37.25
2022-08-06T11:02:01.903Z,37.24
2022-08-06T11:04:49.653Z,38.50
2022-08-06T11:08:14.394Z,38.74
2022-08-06T11:11:19.852Z,38.68
2022-08-06T11:14:03.790Z,39.10
2022-08-06T11:16:36.106Z,39.34
2022-08-06T11:19:08.116Z,38.55
2022-08-06T11:21:59.290Z,38.30
2022-08-06T11:24:37.623Z,38.80
2022-08-06T11:27:36.042Z,39.37
2022-08-06T11:30:16.655Z,38.66
2022-08-06T11:32:55.652Z,38.30
2022-08-06T11:35:51.871Z,39.04
2022-08-06T11:39:09.843Z,39.26
2022-08-06T11:41:55.048Z,38.46
2022-08-06T11:44:32.006Z,37.97
2022-08-06T11:47:36.684Z,37.76
2022-08-06T11:50:27.185Z,39.07
2022-08-06T11:52:56.939Z,38.34
2022-08-06T11:55:28.102Z,38.53
2022-08-06T11:58:21.834Z,38.81
2022-08-06T12:01:03.726Z,38.94
2022-08-06T12:03:52.629Z,38.14
2022-08-06T12:06:27.059Z,37.56
2022-08-06T12:09:21.078Z,37.98
2022-08-06T12:11:55.627Z,39.04
2022-08-06T12:14:49.387Z,39.00
2022-08-06T12:17:21.043Z,38.72
2022-08-06T12:20:01.780Z,38.31
2022-08-06T12:22:35.731Z,37.13
2022-08-06T12:25:11.097Z,36.54
2022-08-06T12:27:50.564Z,37.70
2022-08-06T12:30:36.198Z,38.89
2022-08-06T12:33:13.875Z,39.54
2022-08-06T12:35:56.223Z,39.69
2022-08-06T12:38:31.744Z,38.06
2022-08-06T12:41:09.629Z,37.52
2022-08-06T12:43:56.705Z,37.70
2022-08-06T12:46:29.772Z,37.98
2022-08-06T12:49:03.695Z,37.02
2022-08-06T12:51:33.123Z,36.45
2022-08-06T12:54:06.969Z,36.32
2022-08-06T12:56:40.591Z,35.44
2022-08-06T12:59:23.906Z,35.76
2022-08-06T13:02:07.811Z,35.79
2022-08-06T13:04:47.047Z,35.20
2022-08-06T13:07:16.624Z,35.28
2022-08-06T13:10:16.833Z,35.49
2022-08-06T13:14:02.546Z,36.37
2022-08-06T13:15:31.835Z,37.30
2022-08-06T13:18:41.586Z,36.31
2022-08-06T13:21:18.365Z,36.65
2022-08-06T13:23:49.943Z,36.45
2022-08-06T13:26:25.652Z,35.95
2022-08-06T13:30:29.158Z,36.06
2022-08-06T13:32:03.963Z,36.00
2022-08-06T13:34:51.031Z,36.91
2022-08-06T13:37:54.242Z,36.05
2022-08-06T13:40:39.271Z,35.49
2022-08-06T13:43:11.561Z,35.38
2022-08-06T13:46:08.211Z,34.86
2022-08-06T13:48:46.570Z,35.42
2022-08-06T13:51:22.186Z,35.52
2022-08-06T13:53:57.015Z,36.04
2022-08-06T13:56:31.283Z,37.10
2022-08-06T13:59:01.544Z,37.16
2022-08-06T14:01:44.170Z,36.27
2022-08-06T14:04:22.939Z,36.48
2022-08-06T14:06:59.420Z,36.78
2022-08-06T14:09:57.555Z,37.32
2022-08-06T14:12:20.783Z,36.09
2022-08-06T14:14:50.988Z,35.74
2022-08-06T14:17:19.997Z,35.57
2022-08-06T14:20:17.688Z,35.21
2022-08-06T14:22:43.132Z,35.81
2022-08-06T14:25:12.229Z,36.13
2022-08-06T14:27:44.848Z,36.87
2022-08-06T14:30:29.293Z,37.35
2022-08-06T14:33:10.889Z,37.23
2022-08-06T14:35:53.350Z,37.79
2022-08-06T14:38:31.746Z,37.44
2022-08-06T14:41:47.180Z,38.06
2022-08-06T14:44:25.960Z,37.57
2022-08-06T14:46:55.639Z,36.65
2022-08-06T14:49:33.226Z,35.90
2022-08-06T14:52:23.533Z,35.41
2022-08-06T14:54:56.283Z,34.75
2022-08-06T14:58:03.495Z,33.97
2022-08-06T15:00:34.919Z,33.69
2022-08-06T15:03:08.074Z,34.39
2022-08-06T15:06:00.071Z,35.64
2022-08-06T15:08:34.257Z,36.25
2022-08-06T15:11:06.046Z,35.97
2022-08-06T15:13:43.699Z,36.58
2022-08-06T15:16:48.138Z,36.58
2022-08-06T15:19:19.682Z,36.25
2022-08-06T15:21:57.884Z,36.26
2022-08-06T15:24:30.985Z,35.11
2022-08-06T15:27:09.190Z,34.96
2022-08-06T15:29:38.457Z,34.84
2022-08-06T15:32:18.177Z,34.79
2022-08-06T15:34:49.996Z,35.61
2022-08-06T15:37:56.494Z,35.76
2022-08-06T15:40:12.778Z,36.09
2022-08-06T15:42:43.049Z,35.71
2022-08-06T15:45:49.620Z,35.88
2022-08-06T15:48:02.891Z,35.67
2022-08-06T15:50:43.068Z,36.25
2022-08-06T15:53:23.229Z,36.20
2022-08-06T15:55:54.401Z,36.43
2022-08-06T15:58:28.998Z,36.63
2022-08-06T16:01:04.084Z,35.88
2022-08-06T16:03:56.149Z,35.02
2022-08-06T16:06:26.109Z,34.24
2022-08-06T16:08:59.557Z,33.81
2022-08-06T16:11:50.796Z,33.63
2022-08-06T16:14:20.130Z,33.91
2022-08-06T16:17:03.021Z,33.94
2022-08-06T16:19:33.997Z,33.56
2022-08-06T16:22:18.999Z,33.71
2022-08-06T16:24:48.942Z,33.62
2022-08-06T16:27:19.860Z,33.63
2022-08-06T16:29:49.382Z,33.35
2022-08-06T16:32:25.896Z,33.38
2022-08-06T16:35:00.045Z,33.26
2022-08-06T16:37:33.263Z,33.34
2022-08-06T16:40:09.851Z,33.34
2022-08-06T16:42:40.578Z,33.26
2022-08-06T16:45:14.115Z,33.03
2022-08-06T16:50:37.179Z,33.08
2022-08-06T16:54:11.520Z,32.86
2022-08-06T16:55:56.180Z,33.02
2022-08-06T16:58:35.253Z,33.00
2022-08-06T17:02:15.414Z,32.97
2022-08-06T17:04:03.214Z,32.77
2022-08-06T17:06:34.995Z,32.77
2022-08-06T17:09:16.506Z,32.74
2022-08-06T17:11:52.027Z,32.78
2022-08-06T17:14:32.064Z,32.73
2022-08-06T17:17:06.960Z,32.79
2022-08-06T17:19:38.059Z,32.61
2022-08-06T17:22:10.638Z,32.44
2022-08-06T17:24:45.005Z,32.36
2022-08-06T17:27:16.086Z,32.17
2022-08-06T17:29:48.793Z,32.20
2022-08-06T17:32:32.043Z,32.28
2022-08-06T17:35:08.933Z,31.90
2022-08-06T17:40:32.548Z,31.82
2022-08-06T17:43:13.080Z,31.86
2022-08-06T17:46:00.454Z,31.72
2022-08-06T17:48:38.881Z,31.62
2022-08-06T17:51:09.638Z,31.58
2022-08-06T17:53:54.194Z,31.42
2022-08-06T17:56:30.117Z,31.19
2022-08-06T17:59:17.978Z,31.29
2022-08-06T18:01:51.663Z,31.46
2022-08-06T18:04:30.673Z,31.35
2022-08-06T18:07:12.227Z,31.22
2022-08-06T18:10:09.313Z,31.31
2022-08-06T18:12:48.563Z,31.25
2022-08-06T18:15:19.525Z,31.01
2022-08-06T18:18:04.070Z,31.16
2022-08-06T18:20:41.749Z,30.90
2022-08-06T18:23:21.434Z,30.72
2022-08-06T18:25:57.159Z,30.85
2022-08-06T18:28:40.086Z,30.55
2022-08-06T18:31:20.094Z,30.74
2022-08-06T18:33:53.725Z,30.81
2022-08-06T18:36:33.004Z,30.87
2022-08-06T18:39:02.994Z,30.73
2022-08-06T18:41:57.058Z,30.54
2022-08-06T18:44:27.237Z,30.66
2022-08-06T18:47:03.572Z,30.58
2022-08-06T18:49:50.498Z,30.49
2022-08-06T18:52:23.166Z,30.31
2022-08-06T18:54:56.354Z,30.31
2022-08-06T18:58:04.874Z,30.30
2022-08-06T19:00:21.190Z,30.24
2022-08-06T19:02:53.839Z,30.12
2022-08-06T19:05:28.157Z,29.76
2022-08-06T19:07:59.746Z,29.48
2022-08-06T19:10:30.500Z,29.76
2022-08-06T19:12:59.790Z,29.72
2022-08-06T19:15:46.197Z,29.71
2022-08-06T19:18:24.196Z,29.51
2022-08-06T19:20:56.575Z,29.76
2022-08-06T19:24:03.520Z,29.44
2022-08-06T19:26:16.604Z,29.45
2022-08-06T19:28:50.001Z,29.24
2022-08-06T19:31:23.662Z,29.24
2022-08-06T19:34:14.572Z,29.22
2022-08-06T19:36:48.253Z,29.24
2022-08-06T19:39:52.904Z,28.94
2022-08-06T19:42:13.407Z,28.63
2022-08-06T19:45:04.290Z,27.37
2022-08-06T19:47:47.353Z,27.86
2022-08-06T19:50:19.671Z,28.28
2022-08-06T19:52:50.328Z,28.21
2022-08-06T19:56:07.020Z,28.17
2022-08-06T19:58:26.025Z,28.27
2022-08-06T20:01:31.849Z,28.07
2022-08-06T20:03:58.003Z,27.96
2022-08-06T20:06:40.268Z,28.02
2022-08-06T20:09:29.247Z,27.96
2022-08-06T20:12:11.412Z,28.19
2022-08-06T20:14:40.499Z,28.19
2022-08-06T20:17:12.909Z,28.25
2022-08-06T20:20:05.355Z,28.00
2022-08-06T20:22:31.069Z,27.63
2022-08-06T20:25:12.083Z,27.56
2022-08-06T20:29:07.713Z,27.61
2022-08-06T20:30:44.495Z,27.70
2022-08-06T20:33:19.451Z,27.46
2022-08-06T20:35:57.080Z,27.52
2022-08-06T20:38:39.869Z,27.61
2022-08-06T20:41:58.828Z,27.43
2022-08-06T20:44:08.417Z,27.48
2022-08-06T20:47:00.799Z,27.33
2022-08-06T20:49:47.898Z,27.38
2022-08-06T20:52:18.042Z,27.23
2022-08-06T20:54:51.813Z,27.23
2022-08-06T20:57:27.297Z,27.18
2022-08-06T20:59:57.902Z,27.37
2022-08-06T21:02:32.350Z,27.40
2022-08-06T21:05:12.874Z,27.24
2022-08-06T21:07:56.835Z,27.38
2022-08-06T21:10:30.987Z,27.43
2022-08-06T21:13:06.743Z,27.44
2022-08-06T21:15:54.868Z,27.18
2022-08-06T21:18:27.620Z,27.39
2022-08-06T21:20:57.260Z,27.42
2022-08-06T21:23:55.848Z,27.26
2022-08-06T21:26:19.130Z,27.49
2022-08-06T21:28:55.646Z,26.58
2022-08-06T21:31:27.570Z,26.70
2022-08-06T21:33:57.268Z,26.82
2022-08-06T21:36:28.867Z,26.73
2022-08-06T21:38:59.196Z,26.96
2022-08-06T21:41:54.738Z,26.92
2022-08-06T21:44:24.257Z,26.84
2022-08-06T21:46:58.789Z,26.72
2022-08-06T21:50:00.145Z,26.78
2022-08-06T21:52:27.731Z,26.89
2022-08-06T21:55:11.575Z,26.81
2022-08-06T21:57:48.077Z,26.74
2022-08-06T22:00:36.709Z,26.47
2022-08-06T22:04:36.777Z,26.60
2022-08-06T22:06:20.389Z,26.46
2022-08-06T22:08:53.009Z,26.43
2022-08-06T22:12:36.572Z,26.71
2022-08-06T22:14:16.304Z,26.31
2022-08-06T22:16:48.771Z,25.60
2022-08-06T22:19:33.414Z,25.39
2022-08-06T22:22:07.754Z,25.28
2022-08-06T22:24:38.203Z,25.70
2022-08-06T22:27:12.490Z,25.92
2022-08-06T22:30:04.425Z,25.59
2022-08-06T22:32:36.197Z,25.83
2022-08-06T22:35:09.743Z,25.92
2022-08-06T22:38:17.043Z,25.89
2022-08-06T22:40:30.591Z,26.04
2022-08-06T22:43:17.078Z,26.21
2022-08-06T22:46:02.576Z,26.25
2022-08-06T22:48:36.367Z,26.19
2022-08-06T22:51:11.771Z,25.87
2022-08-06T22:54:28.879Z,26.30
2022-08-06T22:56:38.534Z,25.90
2022-08-06T22:59:31.780Z,25.98
2022-08-06T23:02:06.817Z,25.86
2022-08-06T23:04:46.890Z,26.17
2022-08-06T23:07:21.545Z,26.36
2022-08-06T23:09:58.630Z,26.04
2022-08-06T23:12:36.094Z,25.89
2022-08-06T23:15:30.335Z,25.71
2022-08-06T23:18:00.185Z,25.82
2022-08-06T23:20:32.898Z,26.07
2022-08-06T23:23:04.855Z,26.07
2022-08-06T23:26:00.065Z,26.23
2022-08-06T23:28:23.562Z,26.36
2022-08-06T23:30:57.393Z,26.07
2022-08-06T23:33:38.590Z,26.28
2022-08-06T23:36:17.898Z,26.18
2022-08-06T23:38:50.875Z,26.20
2022-08-06T23:41:24.145Z,26.17
2022-08-06T23:43:53.693Z,25.83
2022-08-06T23:46:27.763Z,25.43
2022-08-06T23:48:58.645Z,25.26
2022-08-06T23:52:01.042Z,25.30
2022-08-06T23:54:28.404Z,25.08
2022-08-06T23:56:58.053Z,25.02
2022-08-06T23:59:45.677Z,24.82
